createdAt,value
2022-08-24T00:00:19.578Z,14.32
2022-08-24T00:02:46.926Z,16.15
2022-08-24T00:05:14.987Z,16.43
2022-08-24T00:07:42.059Z,16.67
2022-08-24T00:10:10.581Z,17.42
2022-08-24T00:12:37.633Z,16.02
2022-08-24T00:15:06.669Z,16.25
2022-08-24T00:17:34.235Z,17.07
2022-08-24T00:20:01.164Z,11.55
2022-08-24T00:22:29.111Z,13.50
2022-08-24T00:24:57.008Z,15.20
2022-08-24T00:27:24.440Z,15.95
2022-08-24T00:29:51.130Z,15.87
2022-08-24T00:32:17.876Z,16.98
2022-08-24T00:34:54.062Z,17.90
2022-08-24T00:37:28.646Z,18.75
2022-08-24T00:39:56.216Z,19.55
2022-08-24T00:42:23.957Z,18.17
2022-08-24T00:44:50.780Z,21.38
2022-08-24T00:47:22.221Z,18.70
2022-08-24T00:49:58.877Z,23.27
2022-08-24T00:52:36.600Z,22.23
2022-08-24T00:55:20.404Z,23.00
2022-08-24T00:57:51.196Z,19.85
2022-08-24T01:00:25.458Z,22.08
2022-08-24T01:02:58.653Z,21.35
2022-08-24T01:05:25.641Z,21.58
2022-08-24T01:07:52.603Z,23.93
2022-08-24T01:10:25.225Z,21.52
2022-08-24T01:13:01.429Z,21.25
2022-08-24T01:15:31.106Z,20.45
2022-08-24T01:18:16.847Z,20.60
2022-08-24T01:21:01.973Z,22.53
2022-08-24T01:23:40.870Z,24.27
2022-08-24T01:26:11.516Z,24.13
2022-08-24T01:28:42.280Z,21.77
2022-08-24T01:31:09.051Z,24.55
2022-08-24T01:33:36.273Z,20.40
2022-08-24T01:36:18.770Z,22.90
2022-08-24T01:38:47.588Z,24.23
2022-08-24T01:41:15.094Z,22.90
2022-08-24T01:43:41.986Z,24.20
2022-08-24T01:46:08.880Z,23.13
2022-08-24T01:48:35.669Z,26.33
2022-08-24T01:51:02.356Z,27.25
2022-08-24T01:53:29.552Z,30.48
2022-08-24T01:55:56.245Z,26.65
2022-08-24T01:58:22.945Z,29.17
2022-08-24T02:00:49.785Z,27.95
2022-08-24T02:03:16.676Z,32.17
2022-08-24T02:05:43.530Z,30.73
2022-08-24T02:08:10.335Z,32.55
2022-08-24T02:10:37.165Z,29.47
2022-08-24T02:13:04.568Z,27.98
2022-08-24T02:15:40.665Z,31.10
2022-08-24T02:18:15.060Z,26.70
2022-08-24T02:20:43.660Z,29.30
2022-08-24T02:23:10.788Z,25.10
2022-08-24T02:25:37.675Z,23.92
2022-08-24T02:28:04.898Z,22.80
2022-08-24T02:30:31.978Z,20.65
2022-08-24T02:32:59.394Z,18.65
2022-08-24T02:35:28.548Z,18.87
2022-08-24T02:37:55.718Z,16.33
2022-08-24T02:40:22.594Z,12.70
2022-08-24T02:42:49.372Z,14.48
2022-08-24T02:45:16.476Z,17.15
2022-08-24T02:47:43.224Z,16.00
2022-08-24T02:50:12.102Z,20.55
2022-08-24T02:52:40.537Z,28.30
2022-08-24T02:55:19.781Z,22.48
2022-08-24T02:57:47.941Z,22.50
2022-08-24T03:00:17.162Z,24.87
2022-08-24T03:02:44.055Z,30.08
2022-08-24T03:05:11.066Z,25.95
2022-08-24T03:07:38.135Z,27.70
2022-08-24T03:10:06.709Z,28.17
2022-08-24T03:12:34.742Z,24.17
2022-08-24T03:15:04.682Z,23.75
2022-08-24T03:17:33.548Z,23.42
2022-08-24T03:20:01.540Z,26.02
2022-08-24T03:22:28.644Z,28.50
2022-08-24T03:24:55.394Z,26.60
2022-08-24T03:27:22.226Z,25.85
2022-08-24T03:29:48.892Z,25.17
2022-08-24T03:32:16.919Z,22.55
2022-08-24T03:34:43.956Z,22.75
2022-08-24T03:37:10.704Z,21.60
2022-08-24T03:39:37.398Z,21.25
2022-08-24T03:42:04.742Z,21.15
2022-08-24T03:44:31.730Z,20.55
2022-08-24T03:46:58.607Z,24.85
2022-08-24T03:49:25.462Z,25.27
2022-08-24T03:51:53.109Z,30.27
2022-08-24T03:54:19.868Z,25.45
2022-08-24T03:56:46.733Z,25.02
2022-08-24T03:59:17.727Z,26.13
2022-08-24T04:01:46.761Z,28.27
2022-08-24T04:04:13.567Z,30.30
2022-08-24T04:06:44.271Z,30.58
2022-08-24T04:09:11.736Z,28.27
2022-08-24T04:11:41.567Z,30.83
2022-08-24T04:14:08.764Z,30.80
2022-08-24T04:16:51.614Z,34.38
2022-08-24T04:19:24.411Z,36.50
2022-08-24T04:21:51.221Z,37.22
2022-08-24T04:24:19.548Z,31.77
2022-08-24T04:26:46.974Z,30.87
2022-08-24T04:29:14.957Z,29.08
2022-08-24T04:31:43.066Z,26.58
2022-08-24T04:34:11.142Z,30.60
2022-08-24T04:36:40.480Z,30.50
2022-08-24T04:39:07.416Z,27.83
2022-08-24T04:41:35.038Z,26.17
2022-08-24T04:44:02.148Z,28.58
2022-08-24T04:46:29.347Z,31.40
2022-08-24T04:48:56.180Z,30.92
2022-08-24T04:51:23.073Z,30.83
2022-08-24T04:53:50.646Z,30.35
2022-08-24T04:56:23.873Z,28.73
2022-08-24T04:58:52.273Z,24.33
2022-08-24T05:01:22.833Z,22.42
2022-08-24T05:03:50.918Z,18.73
2022-08-24T05:06:19.796Z,14.98
2022-08-24T05:08:47.543Z,17.35
2022-08-24T05:11:17.462Z,18.00
2022-08-24T05:13:44.792Z,17.13
2022-08-24T05:16:14.800Z,18.73
2022-08-24T05:18:42.093Z,16.52
2022-08-24T05:21:11.493Z,17.42
2022-08-24T05:23:39.347Z,21.52
2022-08-24T05:26:25.996Z,31.05
2022-08-24T05:28:58.186Z,31.47
2022-08-24T05:31:27.914Z,26.85
2022-08-24T05:33:55.628Z,36.08
2022-08-24T05:36:38.055Z,36.70
2022-08-24T05:39:11.562Z,38.13
2022-08-24T05:41:44.465Z,38.17
2022-08-24T05:44:13.328Z,34.80
2022-08-24T05:46:40.185Z,38.95
2022-08-24T05:49:08.191Z,34.33
2022-08-24T05:51:35.553Z,36.38
2022-08-24T05:54:04.938Z,33.63
2022-08-24T05:56:32.268Z,32.47
2022-08-24T05:59:01.577Z,32.03
2022-08-24T06:01:28.638Z,32.88
2022-08-24T06:03:58.108Z,33.08
2022-08-24T06:06:26.903Z,34.40
2022-08-24T06:08:56.608Z,30.67
2022-08-24T06:11:45.399Z,30.60
2022-08-24T06:14:14.800Z,31.52
2022-08-24T06:16:44.314Z,35.85
2022-08-24T06:19:13.698Z,31.17
2022-08-24T06:21:41.435Z,30.30
2022-08-24T06:24:08.393Z,30.75
2022-08-24T06:26:54.864Z,28.63
2022-08-24T06:29:21.799Z,27.90
2022-08-24T06:31:54.638Z,28.67
2022-08-24T06:34:23.385Z,26.77
2022-08-24T06:36:50.539Z,28.15
2022-08-24T06:39:17.537Z,25.52
2022-08-24T06:41:45.095Z,27.00
2022-08-24T06:44:12.280Z,26.97
2022-08-24T06:46:39.200Z,27.48
2022-08-24T06:49:06.288Z,25.33
2022-08-24T06:51:33.074Z,24.23
2022-08-24T06:54:00.620Z,26.85
2022-08-24T06:56:27.394Z,23.93
2022-08-24T06:58:54.077Z,22.75
2022-08-24T07:01:24.618Z,21.45
2022-08-24T07:03:52.971Z,22.08
2022-08-24T07:06:25.445Z,25.25
2022-08-24T07:08:52.938Z,22.43
2022-08-24T07:11:20.165Z,19.92
2022-08-24T07:13:47.740Z,21.63
2022-08-24T07:16:18.354Z,24.52
2022-08-24T07:18:49.400Z,26.05
2022-08-24T07:21:19.547Z,21.40
2022-08-24T07:23:48.228Z,21.35
2022-08-24T07:26:23.317Z,21.48
2022-08-24T07:29:25.012Z,18.83
2022-08-24T07:31:57.121Z,21.17
2022-08-24T07:34:24.333Z,25.23
2022-08-24T07:36:52.357Z,17.25
2022-08-24T07:39:19.022Z,19.77
2022-08-24T07:42:08.990Z,17.67
2022-08-24T07:44:32.908Z,15.00
2022-08-24T07:47:10.392Z,14.43
2022-08-24T07:49:46.716Z,15.10
2022-08-24T07:52:13.562Z,15.20
2022-08-24T07:54:41.066Z,14.82
2022-08-24T07:57:08.372Z,16.45
2022-08-24T07:59:36.156Z,15.10
2022-08-24T08:02:03.897Z,17.65
2022-08-24T08:04:32.087Z,16.45
2022-08-24T08:07:00.970Z,16.13
2022-08-24T08:09:27.946Z,15.48
2022-08-24T08:11:54.713Z,14.63
2022-08-24T08:14:21.476Z,14.07
2022-08-24T08:16:48.188Z,13.82
2022-08-24T08:19:26.040Z,16.25
2022-08-24T08:22:12.380Z,16.38
2022-08-24T08:24:42.638Z,12.97
2022-08-24T08:27:10.745Z,14.27
2022-08-24T08:29:42.374Z,12.25
2022-08-24T08:32:12.118Z,11.65
2022-08-24T08:34:38.813Z,13.68
2022-08-24T08:37:06.285Z,13.73
2022-08-24T08:39:33.156Z,13.95
2022-08-24T08:42:18.010Z,11.05
2022-08-24T08:45:03.717Z,10.48
2022-08-24T08:47:37.522Z,10.68
2022-08-24T08:50:21.961Z,11.63
2022-08-24T08:53:10.603Z,9.75
2022-08-24T08:55:48.530Z,11.85
2022-08-24T08:58:57.136Z,9.43
2022-08-24T09:01:46.662Z,7.70
2022-08-24T09:04:40.253Z,10.23
2022-08-24T09:07:30.317Z,7.35
2022-08-24T09:10:21.508Z,9.73
2022-08-24T09:13:05.105Z,8.88
2022-08-24T09:15:55.990Z,7.50
2022-08-24T09:18:48.463Z,10.07
2022-08-24T09:21:46.169Z,8.77
2022-08-24T09:24:28.130Z,8.65
2022-08-24T09:27:06.249Z,9.95
2022-08-24T09:29:58.041Z,8.50
2022-08-24T09:32:35.527Z,8.03
2022-08-24T09:35:06.314Z,7.97
2022-08-24T09:38:07.210Z,6.68
2022-08-24T09:40:52.892Z,9.00
2022-08-24T09:43:50.980Z,9.82
2022-08-24T09:47:04.608Z,8.13
2022-08-24T09:49:56.279Z,10.98
2022-08-24T09:52:45.876Z,10.60
2022-08-24T09:55:31.474Z,9.65
2022-08-24T09:58:24.248Z,8.82
2022-08-24T10:01:09.017Z,7.00
2022-08-24T10:04:00.182Z,8.65
2022-08-24T10:06:29.968Z,7.55
2022-08-24T10:09:20.590Z,7.30
2022-08-24T10:12:05.627Z,6.00
2022-08-24T10:14:49.176Z,5.67
2022-08-24T10:17:42.848Z,6.80
2022-08-24T10:20:26.154Z,6.15
2022-08-24T10:23:30.906Z,6.38
2022-08-24T10:26:03.305Z,3.63
2022-08-24T10:28:53.028Z,4.90
2022-08-24T10:31:31.472Z,4.90
2022-08-24T10:34:11.826Z,3.47
2022-08-24T10:37:03.425Z,4.05
2022-08-24T10:39:49.470Z,3.78
2022-08-24T10:42:48.268Z,5.93
2022-08-24T10:45:36.506Z,3.72
2022-08-24T10:48:33.165Z,3.33
2022-08-24T10:51:22.629Z,4.82
2022-08-24T10:53:51.668Z,4.53
2022-08-24T10:56:32.096Z,3.50
2022-08-24T10:59:11.948Z,4.47
2022-08-24T11:01:39.432Z,6.32
2022-08-24T11:04:12.559Z,5.85
2022-08-24T11:06:44.917Z,5.30
2022-08-24T11:09:19.424Z,4.00
2022-08-24T11:11:49.377Z,3.90
2022-08-24T11:14:16.041Z,4.63
2022-08-24T11:16:45.878Z,4.00
2022-08-24T11:19:31.287Z,4.80
2022-08-24T11:22:02.005Z,4.67
2022-08-24T11:24:38.534Z,3.78
2022-08-24T11:27:18.362Z,4.03
2022-08-24T11:29:51.635Z,3.80
2022-08-24T11:32:44.991Z,4.20
2022-08-24T11:35:23.767Z,3.97
2022-08-24T11:38:08.499Z,4.43
2022-08-24T11:40:40.585Z,4.78
2022-08-24T11:43:16.048Z,3.40
2022-08-24T11:46:06.788Z,3.90
2022-08-24T11:48:45.213Z,2.70
2022-08-24T11:51:18.213Z,3.33
2022-08-24T11:54:13.704Z,3.33
2022-08-24T11:57:03.496Z,3.88
2022-08-24T11:59:39.724Z,1.55
2022-08-24T12:02:14.609Z,1.80
2022-08-24T12:05:08.790Z,2.38
2022-08-24T12:08:03.909Z,2.97
2022-08-24T12:10:44.346Z,3.10
2022-08-24T12:13:23.449Z,2.63
2022-08-24T12:16:01.737Z,2.77
2022-08-24T12:19:00.697Z,2.97
2022-08-24T12:21:33.907Z,3.08
2022-08-24T12:24:08.874Z,3.65
2022-08-24T12:26:49.643Z,3.20
2022-08-24T12:29:44.623Z,3.07
2022-08-24T12:32:19.681Z,2.78
2022-08-24T12:34:59.091Z,2.75
2022-08-24T12:37:31.963Z,1.80
2022-08-24T12:40:24.042Z,2.53
2022-08-24T12:43:03.319Z,5.20
2022-08-24T12:45:30.887Z,2.95
2022-08-24T12:48:00.614Z,2.13
2022-08-24T12:50:38.392Z,2.30
2022-08-24T12:53:24.259Z,2.17
2022-08-24T12:56:09.533Z,2.33
2022-08-24T12:59:08.090Z,4.53
2022-08-24T13:01:40.702Z,4.22
2022-08-24T13:04:13.667Z,2.08
2022-08-24T13:06:59.949Z,2.22
2022-08-24T13:09:31.914Z,3.50
2022-08-24T13:12:19.590Z,2.75
2022-08-24T13:15:14.470Z,2.38
2022-08-24T13:17:42.443Z,2.78
2022-08-24T13:20:26.444Z,2.55
2022-08-24T13:23:11.645Z,2.20
2022-08-24T13:25:47.574Z,3.28
2022-08-24T13:28:20.695Z,2.95
2022-08-24T13:31:07.422Z,1.83
2022-08-24T13:33:49.709Z,2.53
2022-08-24T13:36:31.473Z,2.03
2022-08-24T13:39:36.609Z,2.28
2022-08-24T13:42:21.938Z,2.70
2022-08-24T13:45:07.112Z,2.03
2022-08-24T13:47:52.710Z,4.15
2022-08-24T13:50:51.162Z,5.00
2022-08-24T13:53:47.591Z,2.53
2022-08-24T13:56:20.407Z,2.30
2022-08-24T13:59:09.889Z,3.92
2022-08-24T14:02:07.692Z,2.40
2022-08-24T14:04:42.473Z,1.87
2022-08-24T14:07:09.109Z,2.83
2022-08-24T14:09:55.085Z,1.77
2022-08-24T14:12:30.648Z,2.28
2022-08-24T14:15:24.113Z,2.10
2022-08-24T14:18:09.585Z,1.80
2022-08-24T14:21:08.100Z,2.42
2022-08-24T14:23:40.528Z,3.22
2022-08-24T14:26:36.822Z,1.98
2022-08-24T14:29:27.588Z,2.10
2022-08-24T14:32:11.812Z,1.80
2022-08-24T14:35:01.621Z,1.77
2022-08-24T14:38:07.322Z,1.90
2022-08-24T14:41:03.191Z,2.47
2022-08-24T14:44:01.293Z,2.75
2022-08-24T14:46:40.870Z,2.00
2022-08-24T14:49:19.786Z,2.58
2022-08-24T14:51:46.460Z,2.75
2022-08-24T14:54:36.821Z,3.20
2022-08-24T14:57:22.444Z,2.30
2022-08-24T15:00:05.148Z,1.80
2022-08-24T15:02:45.252Z,2.55
2022-08-24T15:05:20.713Z,2.00
2022-08-24T15:08:01.394Z,2.55
2022-08-24T15:10:39.491Z,1.90
2022-08-24T15:13:41.369Z,2.23
2022-08-24T15:16:15.606Z,2.63
2022-08-24T15:19:11.566Z,2.47
2022-08-24T15:22:16.213Z,3.92
2022-08-24T15:25:05.949Z,2.70
2022-08-24T15:27:54.344Z,2.63
2022-08-24T15:30:31.396Z,3.10
2022-08-24T15:33:15.973Z,4.25
2022-08-24T15:35:51.816Z,2.75
2022-08-24T15:38:30.541Z,2.90
2022-08-24T15:41:28.674Z,3.00
2022-08-24T15:44:07.624Z,3.20
2022-08-24T15:46:45.790Z,3.10
2022-08-24T15:49:24.082Z,3.42
2022-08-24T15:52:00.544Z,4.15
2022-08-24T15:54:33.633Z,3.00
2022-08-24T15:57:02.708Z,6.07
2022-08-24T15:59:39.223Z,2.88
2022-08-24T16:02:27.644Z,2.85
2022-08-24T16:05:12.661Z,2.60
2022-08-24T16:08:03.297Z,3.37
2022-08-24T16:10:31.949Z,2.72
2022-08-24T16:13:09.798Z,3.22
2022-08-24T16:16:10.857Z,3.63
2022-08-24T16:18:54.747Z,3.20
2022-08-24T16:21:33.868Z,3.60
2022-08-24T16:24:21.935Z,2.95
2022-08-24T16:26:49.264Z,3.53
2022-08-24T16:29:36.477Z,3.85
2022-08-24T16:32:26.711Z,3.15
2022-08-24T16:35:09.103Z,3.27
2022-08-24T16:37:36.287Z,4.93
2022-08-24T16:40:04.478Z,2.97
2022-08-24T16:42:31.892Z,3.08
2022-08-24T16:44:59.189Z,3.17
2022-08-24T16:47:28.816Z,2.57
2022-08-24T16:49:55.702Z,2.72
2022-08-24T16:52:22.553Z,2.75
2022-08-24T16:54:49.814Z,2.97
2022-08-24T16:57:24.585Z,3.30
2022-08-24T16:59:52.665Z,2.53
2022-08-24T17:02:22.113Z,3.67
2022-08-24T17:04:49.779Z,2.67
2022-08-24T17:07:20.652Z,2.45
2022-08-24T17:09:48.305Z,2.42
2022-08-24T17:12:15.709Z,2.37
2022-08-24T17:14:44.340Z,3.47
2022-08-24T17:17:15.150Z,2.97
2022-08-24T17:19:44.242Z,2.47
2022-08-24T17:22:16.064Z,2.53
2022-08-24T17:24:43.299Z,3.07
2022-08-24T17:27:10.252Z,6.28
2022-08-24T17:29:37.181Z,4.28
2022-08-24T17:32:04.443Z,2.53
2022-08-24T17:34:32.140Z,3.90
2022-08-24T17:36:59.701Z,2.63
2022-08-24T17:39:26.618Z,3.58
2022-08-24T17:41:55.869Z,3.60
2022-08-24T17:44:26.533Z,4.57
2022-08-24T17:46:59.041Z,5.97
2022-08-24T17:49:27.877Z,16.37
2022-08-24T17:51:56.143Z,5.10
2022-08-24T17:54:23.901Z,5.88
2022-08-24T17:56:51.582Z,7.30
2022-08-24T17:59:30.716Z,5.38
2022-08-24T18:02:04.165Z,6.80
2022-08-24T18:04:32.969Z,8.20
2022-08-24T18:07:03.351Z,5.47
2022-08-24T18:09:37.489Z,6.80
2022-08-24T18:12:05.805Z,7.20
2022-08-24T18:14:34.640Z,5.57
2022-08-24T18:17:09.806Z,7.35
2022-08-24T18:19:37.357Z,8.10
2022-08-24T18:22:06.377Z,6.43
2022-08-24T18:24:33.562Z,7.10
2022-08-24T18:27:03.113Z,5.90
2022-08-24T18:29:39.253Z,7.03
2022-08-24T18:32:08.590Z,8.43
2022-08-24T18:34:35.861Z,6.15
2022-08-24T18:37:02.643Z,8.38
2022-08-24T18:39:29.389Z,9.80
2022-08-24T18:41:58.896Z,7.53
2022-08-24T18:44:30.942Z,7.18
2022-08-24T18:46:58.662Z,14.20
2022-08-24T18:49:25.426Z,18.58
2022-08-24T18:51:52.299Z,8.73
2022-08-24T18:54:22.481Z,8.15
2022-08-24T18:56:49.745Z,8.63
2022-08-24T18:59:18.509Z,8.00
2022-08-24T19:02:07.210Z,9.25
2022-08-24T19:04:41.590Z,8.57
2022-08-24T19:07:08.331Z,9.80
2022-08-24T19:09:35.016Z,10.70
2022-08-24T19:12:03.788Z,10.73
2022-08-24T19:14:31.122Z,13.55
2022-08-24T19:16:57.823Z,10.23
2022-08-24T19:19:24.519Z,10.60
2022-08-24T19:21:51.582Z,12.52
2022-08-24T19:24:23.092Z,11.90
2022-08-24T19:26:49.830Z,11.57
2022-08-24T19:29:33.204Z,13.93
2022-08-24T19:32:10.077Z,13.57
2022-08-24T19:34:48.962Z,14.45
2022-08-24T19:37:15.845Z,12.13
2022-08-24T19:39:42.563Z,12.35
2022-08-24T19:42:10.890Z,13.57
2022-08-24T19:44:56.724Z,10.52
2022-08-24T19:47:24.205Z,10.13
2022-08-24T19:49:50.933Z,10.60
2022-08-24T19:52:17.987Z,11.65
2022-08-24T19:54:46.574Z,11.57
2022-08-24T19:57:33.031Z,10.40
2022-08-24T20:00:05.049Z,10.48
2022-08-24T20:02:31.851Z,11.20
2022-08-24T20:04:59.273Z,12.05
2022-08-24T20:07:26.045Z,12.00
2022-08-24T20:09:52.723Z,14.77
2022-08-24T20:12:19.486Z,13.00
2022-08-24T20:14:46.164Z,13.13
2022-08-24T20:17:12.920Z,11.55
2022-08-24T20:19:39.719Z,10.70
2022-08-24T20:22:07.300Z,12.15
2022-08-24T20:24:40.099Z,13.07
2022-08-24T20:27:06.828Z,13.63
2022-08-24T20:29:33.538Z,11.77
2022-08-24T20:32:02.542Z,13.23
2022-08-24T20:34:29.645Z,12.05
2022-08-24T20:36:56.800Z,10.63
2022-08-24T20:39:26.543Z,10.57
2022-08-24T20:41:53.697Z,10.82
2022-08-24T20:44:21.053Z,9.97
2022-08-24T20:46:50.209Z,9.45
2022-08-24T20:49:19.509Z,9.93
2022-08-24T20:51:46.394Z,9.75
2022-08-24T20:54:14.604Z,10.68
2022-08-24T20:56:43.631Z,10.80
2022-08-24T20:59:11.894Z,9.77
2022-08-24T21:01:42.290Z,10.07
2022-08-24T21:04:09.659Z,8.93
2022-08-24T21:06:37.269Z,9.82
2022-08-24T21:09:05.719Z,10.13
2022-08-24T21:11:32.951Z,9.75
2022-08-24T21:14:00.395Z,9.07
2022-08-24T21:16:27.392Z,9.05
2022-08-24T21:18:54.188Z,10.82
2022-08-24T21:21:20.901Z,8.67
2022-08-24T21:23:47.645Z,11.15
2022-08-24T21:26:16.880Z,11.07
2022-08-24T21:28:44.032Z,10.95
2022-08-24T21:31:10.830Z,10.68
2022-08-24T21:33:56.656Z,10.27
2022-08-24T21:36:25.077Z,9.52
2022-08-24T21:38:54.442Z,10.15
2022-08-24T21:41:21.896Z,10.32
2022-08-24T21:43:48.670Z,12.77
2022-08-24T21:46:15.578Z,10.97
2022-08-24T21:48:42.403Z,12.05
2022-08-24T21:51:09.862Z,11.73
2022-08-24T21:53:37.099Z,11.30
2022-08-24T21:56:04.093Z,13.85
2022-08-24T21:58:30.788Z,12.63
2022-08-24T22:00:59.209Z,12.40
2022-08-24T22:03:33.221Z,12.82
2022-08-24T22:06:08.748Z,14.60
2022-08-24T22:08:36.582Z,13.93
2022-08-24T22:11:03.604Z,14.20
2022-08-24T22:13:30.337Z,12.90
2022-08-24T22:15:57.112Z,14.07
2022-08-24T22:18:24.475Z,14.27
2022-08-24T22:20:51.238Z,12.55
2022-08-24T22:23:18.123Z,12.97
2022-08-24T22:25:44.820Z,12.57
2022-08-24T22:28:11.498Z,12.88
2022-08-24T22:30:38.195Z,17.50
2022-08-24T22:33:05.195Z,15.02
2022-08-24T22:35:36.163Z,15.70
2022-08-24T22:38:12.855Z,16.85
2022-08-24T22:40:39.799Z,16.05
2022-08-24T22:43:06.615Z,15.18
2022-08-24T22:45:33.391Z,16.98
2022-08-24T22:48:00.141Z,20.23
2022-08-24T22:50:27.091Z,16.15
2022-08-24T22:52:54.525Z,16.75
2022-08-24T22:55:21.388Z,16.95
2022-08-24T22:57:51.245Z,18.08
2022-08-24T23:00:18.788Z,17.17
2022-08-24T23:02:45.624Z,18.50
2022-08-24T23:05:12.559Z,17.17
2022-08-24T23:07:39.486Z,17.35
2022-08-24T23:10:07.040Z,16.85
2022-08-24T23:12:33.900Z,17.63
2022-08-24T23:15:00.782Z,17.80
2022-08-24T23:17:27.609Z,16.48
2022-08-24T23:20:00.900Z,16.13
2022-08-24T23:22:31.618Z,17.38
2022-08-24T23:24:59.311Z,16.67
2022-08-24T23:27:27.560Z,17.15
2022-08-24T23:30:00.008Z,18.58
2022-08-24T23:32:27.406Z,17.15
2022-08-24T23:34:58.111Z,15.55
2022-08-24T23:37:25.173Z,16.13
2022-08-24T23:39:51.944Z,17.98
2022-08-24T23:42:18.775Z,19.02
2022-08-24T23:44:46.337Z,16.63
2022-08-24T23:47:13.152Z,18.60
2022-08-24T23:49:40.092Z,17.07
2022-08-24T23:52:06.930Z,16.52
2022-08-24T23:54:34.890Z,16.70
2022-08-24T23:57:08.366Z,15.98
2022-08-24T23:59:36.021Z,16.23
